sensor_id;sensor_type;location;lat;lon;timestamp;P1;durP1;ratioP1;P2;durP2;ratioP2
5343;SDS011;2694;48.954;8.928;2023-06-26T00:00:26;9.82;;;5.22;;
5343;SDS011;2694;48.954;8.928;2023-06-26T00:02:53;9.43;;;5.40;;
5343;SDS011;2694;48.954;8.928;2023-06-26T00:05:20;7.35;;;4.78;;
5343;SDS011;2694;48.954;8.928;2023-06-26T00:07:47;9.73;;;5.07;;
5343;SDS011;2694;48.954;8.928;2023-06-26T00:10:14;8.32;;;5.22;;
5343;SDS011;2694;48.954;8.928;2023-06-26T00:12:42;9.05;;;5.43;;
5343;SDS011;2694;48.954;8.928;2023-06-26T00:15:09;7.83;;;5.50;;
5343;SDS011;2694;48.954;8.928;2023-06-26T00:17:37;8.80;;;5.03;;
5343;SDS011;2694;48.954;8.928;2023-06-26T00:20:04;8.43;;;5.43;;
5343;SDS011;2694;48.954;8.928;2023-06-26T00:22:32;7.95;;;4.75;;
5343;SDS011;2694;48.954;8.928;2023-06-26T00:24:58;8.10;;;5.13;;
5343;SDS011;2694;48.954;8.928;2023-06-26T00:27:26;7.80;;;4.90;;
5343;SDS011;2694;48.954;8.928;2023-06-26T00:29:54;7.60;;;4.75;;
5343;SDS011;2694;48.954;8.928;2023-06-26T00:32:21;7.93;;;4.90;;
5343;SDS011;2694;48.954;8.928;2023-06-26T00:34:48;7.28;;;4.85;;
5343;SDS011;2694;48.954;8.928;2023-06-26T00:37:15;8.20;;;4.90;;
5343;SDS011;2694;48.954;8.928;2023-06-26T00:39:42;8.57;;;4.70;;
5343;SDS011;2694;48.954;8.928;2023-06-26T00:42:08;7.40;;;5.07;;
5343;SDS011;2694;48.954;8.928;2023-06-26T00:44:35;8.13;;;5.15;;
5343;SDS011;2694;48.954;8.928;2023-06-26T00:47:04;7.55;;;4.50;;
5343;SDS011;2694;48.954;8.928;2023-06-26T00:49:31;7.47;;;4.97;;
5343;SDS011;2694;48.954;8.928;2023-06-26T00:51:59;7.95;;;4.75;;
5343;SDS011;2694;48.954;8.928;2023-06-26T00:54:26;9.20;;;5.50;;
5343;SDS011;2694;48.954;8.928;2023-06-26T00:56:53;8.63;;;5.47;;
5343;SDS011;2694;48.954;8.928;2023-06-26T00:59:20;10.13;;;5.32;;
5343;SDS011;2694;48.954;8.928;2023-06-26T01:01:47;8.60;;;5.15;;
5343;SDS011;2694;48.954;8.928;2023-06-26T01:04:15;8.07;;;5.15;;
5343;SDS011;2694;48.954;8.928;2023-06-26T01:06:44;13.40;;;5.40;;
5343;SDS011;2694;48.954;8.928;2023-06-26T01:09:15;7.72;;;5.30;;
5343;SDS011;2694;48.954;8.928;2023-06-26T01:11:43;8.07;;;5.20;;
5343;SDS011;2694;48.954;8.928;2023-06-26T01:14:10;9.13;;;5.40;;
5343;SDS011;2694;48.954;8.928;2023-06-26T01:16:37;7.60;;;4.90;;
5343;SDS011;2694;48.954;8.928;2023-06-26T01:19:06;8.32;;;5.00;;
5343;SDS011;2694;48.954;8.928;2023-06-26T01:21:40;8.25;;;5.03;;
5343;SDS011;2694;48.954;8.928;2023-06-26T01:24:12;8.90;;;4.90;;
5343;SDS011;2694;48.954;8.928;2023-06-26T01:26:46;8.98;;;5.65;;
5343;SDS011;2694;48.954;8.928;2023-06-26T01:29:17;8.43;;;5.68;;
5343;SDS011;2694;48.954;8.928;2023-06-26T01:31:46;7.88;;;5.15;;
5343;SDS011;2694;48.954;8.928;2023-06-26T01:34:14;8.65;;;5.00;;
5343;SDS011;2694;48.954;8.928;2023-06-26T01:36:43;8.30;;;5.28;;
5343;SDS011;2694;48.954;8.928;2023-06-26T01:39:12;8.68;;;5.50;;
5343;SDS011;2694;48.954;8.928;2023-06-26T01:41:40;10.15;;;5.10;;
5343;SDS011;2694;48.954;8.928;2023-06-26T01:44:13;9.65;;;5.85;;
5343;SDS011;2694;48.954;8.928;2023-06-26T01:46:47;10.50;;;6.10;;
5343;SDS011;2694;48.954;8.928;2023-06-26T01:49:23;8.15;;;4.80;;
5343;SDS011;2694;48.954;8.928;2023-06-26T01:51:58;9.45;;;5.10;;
5343;SDS011;2694;48.954;8.928;2023-06-26T01:54:35;8.98;;;5.30;;
5343;SDS011;2694;48.954;8.928;2023-06-26T01:57:06;9.03;;;4.90;;
5343;SDS011;2694;48.954;8.928;2023-06-26T01:59:37;8.82;;;5.10;;
5343;SDS011;2694;48.954;8.928;2023-06-26T02:02:09;7.95;;;5.25;;
5343;SDS011;2694;48.954;8.928;2023-06-26T02:04:36;9.90;;;4.97;;
5343;SDS011;2694;48.954;8.928;2023-06-26T02:07:03;9.02;;;5.00;;
5343;SDS011;2694;48.954;8.928;2023-06-26T02:09:30;8.02;;;5.30;;
5343;SDS011;2694;48.954;8.928;2023-06-26T02:11:57;10.65;;;5.90;;
5343;SDS011;2694;48.954;8.928;2023-06-26T02:14:24;8.83;;;5.30;;
5343;SDS011;2694;48.954;8.928;2023-06-26T02:16:52;9.05;;;5.53;;
5343;SDS011;2694;48.954;8.928;2023-06-26T02:19:19;9.45;;;5.53;;
5343;SDS011;2694;48.954;8.928;2023-06-26T02:21:46;8.80;;;5.70;;
5343;SDS011;2694;48.954;8.928;2023-06-26T02:24:14;8.20;;;5.25;;
5343;SDS011;2694;48.954;8.928;2023-06-26T02:26:41;9.45;;;5.70;;
5343;SDS011;2694;48.954;8.928;2023-06-26T02:29:08;11.32;;;5.63;;
5343;SDS011;2694;48.954;8.928;2023-06-26T02:31:35;9.70;;;5.70;;
5343;SDS011;2694;48.954;8.928;2023-06-26T02:34:03;10.32;;;5.47;;
5343;SDS011;2694;48.954;8.928;2023-06-26T02:36:30;9.43;;;5.57;;
5343;SDS011;2694;48.954;8.928;2023-06-26T02:38:57;9.75;;;5.22;;
5343;SDS011;2694;48.954;8.928;2023-06-26T02:41:24;9.77;;;5.50;;
5343;SDS011;2694;48.954;8.928;2023-06-26T02:43:51;8.73;;;5.40;;
5343;SDS011;2694;48.954;8.928;2023-06-26T02:46:18;9.80;;;5.95;;
5343;SDS011;2694;48.954;8.928;2023-06-26T02:48:45;13.18;;;7.10;;
5343;SDS011;2694;48.954;8.928;2023-06-26T02:51:13;11.57;;;6.50;;
5343;SDS011;2694;48.954;8.928;2023-06-26T02:53:40;10.73;;;6.20;;
5343;SDS011;2694;48.954;8.928;2023-06-26T02:56:07;10.95;;;6.70;;
5343;SDS011;2694;48.954;8.928;2023-06-26T02:58:34;11.63;;;6.50;;
5343;SDS011;2694;48.954;8.928;2023-06-26T03:01:01;12.40;;;6.80;;
5343;SDS011;2694;48.954;8.928;2023-06-26T03:03:28;11.40;;;6.40;;
5343;SDS011;2694;48.954;8.928;2023-06-26T03:05:54;11.20;;;7.20;;
5343;SDS011;2694;48.954;8.928;2023-06-26T03:08:23;12.35;;;7.32;;
5343;SDS011;2694;48.954;8.928;2023-06-26T03:10:50;16.00;;;7.57;;
5343;SDS011;2694;48.954;8.928;2023-06-26T03:13:17;10.70;;;6.80;;
5343;SDS011;2694;48.954;8.928;2023-06-26T03:15:44;12.77;;;7.45;;
5343;SDS011;2694;48.954;8.928;2023-06-26T03:18:11;10.70;;;6.63;;
5343;SDS011;2694;48.954;8.928;2023-06-26T03:20:38;13.07;;;6.43;;
5343;SDS011;2694;48.954;8.928;2023-06-26T03:23:05;10.68;;;6.60;;
5343;SDS011;2694;48.954;8.928;2023-06-26T03:25:33;7.60;;;5.43;;
5343;SDS011;2694;48.954;8.928;2023-06-26T03:28:00;10.63;;;6.18;;
5343;SDS011;2694;48.954;8.928;2023-06-26T03:30:27;9.68;;;5.97;;
5343;SDS011;2694;48.954;8.928;2023-06-26T03:32:54;10.32;;;6.47;;
5343;SDS011;2694;48.954;8.928;2023-06-26T03:35:21;8.23;;;5.60;;
5343;SDS011;2694;48.954;8.928;2023-06-26T03:37:48;11.63;;;6.20;;
5343;SDS011;2694;48.954;8.928;2023-06-26T03:40:15;9.55;;;6.00;;
5343;SDS011;2694;48.954;8.928;2023-06-26T03:42:43;10.95;;;6.15;;
5343;SDS011;2694;48.954;8.928;2023-06-26T03:45:10;13.27;;;5.90;;
5343;SDS011;2694;48.954;8.928;2023-06-26T03:47:38;10.82;;;6.55;;
5343;SDS011;2694;48.954;8.928;2023-06-26T03:50:05;12.15;;;6.40;;
5343;SDS011;2694;48.954;8.928;2023-06-26T03:52:32;10.25;;;6.15;;
5343;SDS011;2694;48.954;8.928;2023-06-26T03:54:59;11.80;;;6.75;;
5343;SDS011;2694;48.954;8.928;2023-06-26T03:57:26;10.73;;;6.32;;
5343;SDS011;2694;48.954;8.928;2023-06-26T03:59:54;10.20;;;5.90;;
5343;SDS011;2694;48.954;8.928;2023-06-26T04:02:21;12.07;;;6.10;;
5343;SDS011;2694;48.954;8.928;2023-06-26T04:04:49;12.20;;;6.53;;
5343;SDS011;2694;48.954;8.928;2023-06-26T04:07:17;8.82;;;5.72;;
5343;SDS011;2694;48.954;8.928;2023-06-26T04:09:44;9.80;;;6.18;;
5343;SDS011;2694;48.954;8.928;2023-06-26T04:12:11;10.80;;;5.70;;
5343;SDS011;2694;48.954;8.928;2023-06-26T04:14:38;10.97;;;5.93;;
5343;SDS011;2694;48.954;8.928;2023-06-26T04:17:06;11.38;;;6.55;;
5343;SDS011;2694;48.954;8.928;2023-06-26T04:19:33;11.57;;;6.10;;
5343;SDS011;2694;48.954;8.928;2023-06-26T04:22:01;9.82;;;6.50;;
5343;SDS011;2694;48.954;8.928;2023-06-26T04:24:28;9.02;;;6.15;;
5343;SDS011;2694;48.954;8.928;2023-06-26T04:26:55;8.45;;;5.72;;
5343;SDS011;2694;48.954;8.928;2023-06-26T04:29:22;9.93;;;6.18;;
5343;SDS011;2694;48.954;8.928;2023-06-26T04:31:50;12.07;;;6.80;;
5343;SDS011;2694;48.954;8.928;2023-06-26T04:34:18;11.40;;;6.82;;
5343;SDS011;2694;48.954;8.928;2023-06-26T04:36:45;10.43;;;6.00;;
5343;SDS011;2694;48.954;8.928;2023-06-26T04:39:13;13.10;;;6.80;;
5343;SDS011;2694;48.954;8.928;2023-06-26T04:41:40;12.20;;;6.50;;
5343;SDS011;2694;48.954;8.928;2023-06-26T04:44:07;10.55;;;6.65;;
5343;SDS011;2694;48.954;8.928;2023-06-26T04:46:34;10.30;;;6.38;;
5343;SDS011;2694;48.954;8.928;2023-06-26T04:49:02;12.65;;;6.65;;
5343;SDS011;2694;48.954;8.928;2023-06-26T04:51:31;9.00;;;6.10;;
5343;SDS011;2694;48.954;8.928;2023-06-26T04:53:57;12.02;;;6.72;;
5343;SDS011;2694;48.954;8.928;2023-06-26T04:56:24;11.70;;;7.00;;
5343;SDS011;2694;48.954;8.928;2023-06-26T04:58:51;9.18;;;5.97;;
5343;SDS011;2694;48.954;8.928;2023-06-26T05:01:19;11.93;;;6.88;;
5343;SDS011;2694;48.954;8.928;2023-06-26T05:03:46;16.15;;;6.80;;
5343;SDS011;2694;48.954;8.928;2023-06-26T05:06:13;10.18;;;6.07;;
5343;SDS011;2694;48.954;8.928;2023-06-26T05:08:41;12.95;;;6.80;;
5343;SDS011;2694;48.954;8.928;2023-06-26T05:11:08;10.32;;;6.53;;
5343;SDS011;2694;48.954;8.928;2023-06-26T05:13:35;13.63;;;7.00;;
5343;SDS011;2694;48.954;8.928;2023-06-26T05:16:02;10.40;;;6.30;;
5343;SDS011;2694;48.954;8.928;2023-06-26T05:18:29;11.70;;;6.53;;
5343;SDS011;2694;48.954;8.928;2023-06-26T05:20:56;18.88;;;6.47;;
5343;SDS011;2694;48.954;8.928;2023-06-26T05:23:24;11.73;;;6.57;;
5343;SDS011;2694;48.954;8.928;2023-06-26T05:25:53;11.70;;;6.70;;
5343;SDS011;2694;48.954;8.928;2023-06-26T05:28:21;11.57;;;6.90;;
5343;SDS011;2694;48.954;8.928;2023-06-26T05:30:49;14.65;;;7.43;;
5343;SDS011;2694;48.954;8.928;2023-06-26T05:33:17;12.45;;;7.22;;
5343;SDS011;2694;48.954;8.928;2023-06-26T05:35:45;13.38;;;6.80;;
5343;SDS011;2694;48.954;8.928;2023-06-26T05:38:13;14.73;;;7.72;;
5343;SDS011;2694;48.954;8.928;2023-06-26T05:40:40;11.07;;;6.78;;
5343;SDS011;2694;48.954;8.928;2023-06-26T05:43:09;10.45;;;6.10;;
5343;SDS011;2694;48.954;8.928;2023-06-26T05:45:37;12.20;;;6.72;;
5343;SDS011;2694;48.954;8.928;2023-06-26T05:48:04;13.40;;;6.87;;
5343;SDS011;2694;48.954;8.928;2023-06-26T05:50:31;11.20;;;6.80;;
5343;SDS011;2694;48.954;8.928;2023-06-26T05:52:59;12.90;;;6.68;;
5343;SDS011;2694;48.954;8.928;2023-06-26T05:55:28;9.40;;;6.10;;
5343;SDS011;2694;48.954;8.928;2023-06-26T05:57:56;12.10;;;7.30;;
5343;SDS011;2694;48.954;8.928;2023-06-26T06:00:28;14.33;;;7.20;;
5343;SDS011;2694;48.954;8.928;2023-06-26T06:02:55;14.77;;;7.93;;
5343;SDS011;2694;48.954;8.928;2023-06-26T06:05:22;12.73;;;7.50;;
5343;SDS011;2694;48.954;8.928;2023-06-26T06:07:49;11.73;;;6.60;;
5343;SDS011;2694;48.954;8.928;2023-06-26T06:10:16;12.38;;;7.20;;
5343;SDS011;2694;48.954;8.928;2023-06-26T06:12:43;10.30;;;6.93;;
5343;SDS011;2694;48.954;8.928;2023-06-26T06:15:10;15.95;;;7.28;;
5343;SDS011;2694;48.954;8.928;2023-06-26T06:17:38;8.93;;;5.90;;
5343;SDS011;2694;48.954;8.928;2023-06-26T06:20:05;9.93;;;6.45;;
5343;SDS011;2694;48.954;8.928;2023-06-26T06:22:32;10.10;;;6.50;;
5343;SDS011;2694;48.954;8.928;2023-06-26T06:24:59;13.68;;;6.88;;
5343;SDS011;2694;48.954;8.928;2023-06-26T06:27:26;9.27;;;6.10;;
5343;SDS011;2694;48.954;8.928;2023-06-26T06:29:53;10.10;;;6.38;;
5343;SDS011;2694;48.954;8.928;2023-06-26T06:32:20;9.85;;;6.30;;
5343;SDS011;2694;48.954;8.928;2023-06-26T06:34:49;8.60;;;5.75;;
5343;SDS011;2694;48.954;8.928;2023-06-26T06:37:16;10.55;;;6.25;;
5343;SDS011;2694;48.954;8.928;2023-06-26T06:39:43;11.68;;;5.95;;
5343;SDS011;2694;48.954;8.928;2023-06-26T06:42:09;9.77;;;5.95;;
5343;SDS011;2694;48.954;8.928;2023-06-26T06:44:36;11.27;;;6.47;;
5343;SDS011;2694;48.954;8.928;2023-06-26T06:47:03;11.43;;;6.50;;
5343;SDS011;2694;48.954;8.928;2023-06-26T06:49:30;12.30;;;6.73;;
5343;SDS011;2694;48.954;8.928;2023-06-26T06:51:59;9.13;;;6.20;;
5343;SDS011;2694;48.954;8.928;2023-06-26T06:54:26;11.13;;;7.03;;
5343;SDS011;2694;48.954;8.928;2023-06-26T06:56:53;9.38;;;6.10;;
5343;SDS011;2694;48.954;8.928;2023-06-26T06:59:20;10.93;;;6.40;;
5343;SDS011;2694;48.954;8.928;2023-06-26T07:01:47;11.23;;;6.82;;
5343;SDS011;2694;48.954;8.928;2023-06-26T07:04:14;12.13;;;6.13;;
5343;SDS011;2694;48.954;8.928;2023-06-26T07:06:41;9.43;;;6.18;;
5343;SDS011;2694;48.954;8.928;2023-06-26T07:09:09;9.02;;;5.85;;
5343;SDS011;2694;48.954;8.928;2023-06-26T07:11:36;9.95;;;5.95;;
5343;SDS011;2694;48.954;8.928;2023-06-26T07:14:03;9.47;;;5.90;;
5343;SDS011;2694;48.954;8.928;2023-06-26T07:16:30;9.10;;;6.00;;
5343;SDS011;2694;48.954;8.928;2023-06-26T07:18:57;8.90;;;5.70;;
5343;SDS011;2694;48.954;8.928;2023-06-26T07:21:24;10.80;;;6.10;;
5343;SDS011;2694;48.954;8.928;2023-06-26T07:23:51;10.93;;;5.50;;
5343;SDS011;2694;48.954;8.928;2023-06-26T07:26:20;9.85;;;5.63;;
5343;SDS011;2694;48.954;8.928;2023-06-26T07:28:48;14.50;;;5.63;;
5343;SDS011;2694;48.954;8.928;2023-06-26T07:31:15;7.93;;;5.40;;
5343;SDS011;2694;48.954;8.928;2023-06-26T07:33:42;10.10;;;5.75;;
5343;SDS011;2694;48.954;8.928;2023-06-26T07:36:09;7.57;;;4.47;;
5343;SDS011;2694;48.954;8.928;2023-06-26T07:38:36;10.35;;;5.60;;
5343;SDS011;2694;48.954;8.928;2023-06-26T07:41:03;10.20;;;5.57;;
5343;SDS011;2694;48.954;8.928;2023-06-26T07:43:31;11.05;;;5.85;;
5343;SDS011;2694;48.954;8.928;2023-06-26T07:45:58;9.13;;;5.68;;
5343;SDS011;2694;48.954;8.928;2023-06-26T07:48:25;11.25;;;5.32;;
5343;SDS011;2694;48.954;8.928;2023-06-26T07:50:52;7.70;;;5.40;;
5343;SDS011;2694;48.954;8.928;2023-06-26T07:53:19;8.27;;;5.10;;
5343;SDS011;2694;48.954;8.928;2023-06-26T07:55:46;8.27;;;4.70;;
5343;SDS011;2694;48.954;8.928;2023-06-26T07:58:13;8.88;;;5.70;;
5343;SDS011;2694;48.954;8.928;2023-06-26T08:00:41;8.85;;;5.20;;
5343;SDS011;2694;48.954;8.928;2023-06-26T08:03:08;10.87;;;5.00;;
5343;SDS011;2694;48.954;8.928;2023-06-26T08:05:35;7.28;;;5.20;;
5343;SDS011;2694;48.954;8.928;2023-06-26T08:08:02;9.23;;;5.78;;
5343;SDS011;2694;48.954;8.928;2023-06-26T08:10:29;8.35;;;5.20;;
5343;SDS011;2694;48.954;8.928;2023-06-26T08:12:56;9.60;;;5.30;;
5343;SDS011;2694;48.954;8.928;2023-06-26T08:15:23;8.68;;;4.88;;
5343;SDS011;2694;48.954;8.928;2023-06-26T08:17:52;7.05;;;4.38;;
5343;SDS011;2694;48.954;8.928;2023-06-26T08:20:19;7.82;;;5.10;;
5343;SDS011;2694;48.954;8.928;2023-06-26T08:22:46;9.60;;;5.15;;
5343;SDS011;2694;48.954;8.928;2023-06-26T08:25:14;7.90;;;4.30;;
5343;SDS011;2694;48.954;8.928;2023-06-26T08:27:41;8.75;;;4.20;;
5343;SDS011;2694;48.954;8.928;2023-06-26T08:30:09;6.90;;;4.00;;
5343;SDS011;2694;48.954;8.928;2023-06-26T08:32:37;7.78;;;4.00;;
5343;SDS011;2694;48.954;8.928;2023-06-26T08:35:07;6.80;;;3.80;;
5343;SDS011;2694;48.954;8.928;2023-06-26T08:37:36;8.60;;;3.70;;
5343;SDS011;2694;48.954;8.928;2023-06-26T08:40:04;5.68;;;3.60;;
5343;SDS011;2694;48.954;8.928;2023-06-26T08:42:33;7.55;;;3.90;;
5343;SDS011;2694;48.954;8.928;2023-06-26T08:45:01;6.53;;;3.57;;
5343;SDS011;2694;48.954;8.928;2023-06-26T08:47:29;5.78;;;3.65;;
5343;SDS011;2694;48.954;8.928;2023-06-26T08:50:00;7.35;;;4.00;;
5343;SDS011;2694;48.954;8.928;2023-06-26T08:52:35;5.25;;;3.65;;
5343;SDS011;2694;48.954;8.928;2023-06-26T08:55:06;6.70;;;4.13;;
5343;SDS011;2694;48.954;8.928;2023-06-26T08:57:35;5.82;;;3.60;;
5343;SDS011;2694;48.954;8.928;2023-06-26T09:00:03;7.07;;;4.20;;
5343;SDS011;2694;48.954;8.928;2023-06-26T09:02:33;8.85;;;4.07;;
5343;SDS011;2694;48.954;8.928;2023-06-26T09:05:01;6.82;;;3.88;;
5343;SDS011;2694;48.954;8.928;2023-06-26T09:07:28;7.30;;;3.95;;
5343;SDS011;2694;48.954;8.928;2023-06-26T09:09:57;5.75;;;4.00;;
5343;SDS011;2694;48.954;8.928;2023-06-26T09:12:26;7.22;;;4.70;;
5343;SDS011;2694;48.954;8.928;2023-06-26T09:14:53;10.77;;;4.70;;
5343;SDS011;2694;48.954;8.928;2023-06-26T09:17:23;6.30;;;4.20;;
5343;SDS011;2694;48.954;8.928;2023-06-26T09:19:51;5.97;;;4.10;;
5343;SDS011;2694;48.954;8.928;2023-06-26T09:22:18;5.70;;;3.95;;
5343;SDS011;2694;48.954;8.928;2023-06-26T09:24:46;6.55;;;4.20;;
5343;SDS011;2694;48.954;8.928;2023-06-26T09:27:15;6.10;;;4.55;;
5343;SDS011;2694;48.954;8.928;2023-06-26T09:29:42;10.45;;;4.65;;
5343;SDS011;2694;48.954;8.928;2023-06-26T09:32:12;8.65;;;4.50;;
5343;SDS011;2694;48.954;8.928;2023-06-26T09:34:41;6.55;;;4.18;;
5343;SDS011;2694;48.954;8.928;2023-06-26T09:37:11;20.88;;;4.80;;
5343;SDS011;2694;48.954;8.928;2023-06-26T09:39:39;9.00;;;4.23;;
5343;SDS011;2694;48.954;8.928;2023-06-26T09:42:06;6.63;;;4.03;;
5343;SDS011;2694;48.954;8.928;2023-06-26T09:44:34;5.50;;;3.58;;
5343;SDS011;2694;48.954;8.928;2023-06-26T09:47:01;9.18;;;4.63;;
5343;SDS011;2694;48.954;8.928;2023-06-26T09:49:29;7.70;;;4.50;;
5343;SDS011;2694;48.954;8.928;2023-06-26T09:51:57;10.90;;;4.78;;
5343;SDS011;2694;48.954;8.928;2023-06-26T09:54:27;7.20;;;4.38;;
5343;SDS011;2694;48.954;8.928;2023-06-26T09:57:06;7.82;;;4.07;;
5343;SDS011;2694;48.954;8.928;2023-06-26T09:59:35;6.65;;;4.30;;
5343;SDS011;2694;48.954;8.928;2023-06-26T10:02:03;7.57;;;4.10;;
5343;SDS011;2694;48.954;8.928;2023-06-26T10:04:30;7.13;;;4.30;;
5343;SDS011;2694;48.954;8.928;2023-06-26T10:06:57;5.97;;;4.13;;
5343;SDS011;2694;48.954;8.928;2023-06-26T10:09:27;7.65;;;4.60;;
5343;SDS011;2694;48.954;8.928;2023-06-26T10:11:56;6.40;;;4.10;;
5343;SDS011;2694;48.954;8.928;2023-06-26T10:14:26;10.82;;;4.45;;
5343;SDS011;2694;48.954;8.928;2023-06-26T10:16:59;10.68;;;4.20;;
5343;SDS011;2694;48.954;8.928;2023-06-26T10:19:29;7.65;;;4.82;;
5343;SDS011;2694;48.954;8.928;2023-06-26T10:21:58;7.60;;;4.53;;
5343;SDS011;2694;48.954;8.928;2023-06-26T10:24:26;10.40;;;5.13;;
5343;SDS011;2694;48.954;8.928;2023-06-26T10:26:58;6.80;;;4.60;;
5343;SDS011;2694;48.954;8.928;2023-06-26T10:29:30;10.50;;;4.53;;
5343;SDS011;2694;48.954;8.928;2023-06-26T10:32:02;8.57;;;4.70;;
5343;SDS011;2694;48.954;8.928;2023-06-26T10:34:30;10.40;;;4.70;;
5343;SDS011;2694;48.954;8.928;2023-06-26T10:37:00;11.00;;;5.03;;
5343;SDS011;2694;48.954;8.928;2023-06-26T10:39:45;14.55;;;5.10;;
5343;SDS011;2694;48.954;8.928;2023-06-26T10:42:14;7.88;;;4.82;;
5343;SDS011;2694;48.954;8.928;2023-06-26T10:44:41;10.55;;;4.40;;
5343;SDS011;2694;48.954;8.928;2023-06-26T10:47:10;7.47;;;4.63;;
5343;SDS011;2694;48.954;8.928;2023-06-26T10:49:38;8.65;;;4.53;;
5343;SDS011;2694;48.954;8.928;2023-06-26T10:52:13;7.07;;;4.93;;
5343;SDS011;2694;48.954;8.928;2023-06-26T10:54:40;5.80;;;4.30;;
5343;SDS011;2694;48.954;8.928;2023-06-26T10:57:07;7.43;;;5.22;;
5343;SDS011;2694;48.954;8.928;2023-06-26T10:59:34;6.57;;;4.22;;
5343;SDS011;2694;48.954;8.928;2023-06-26T11:02:05;10.30;;;5.10;;
5343;SDS011;2694;48.954;8.928;2023-06-26T11:04:37;6.18;;;4.20;;
5343;SDS011;2694;48.954;8.928;2023-06-26T11:07:14;8.50;;;4.80;;
5343;SDS011;2694;48.954;8.928;2023-06-26T11:09:55;6.47;;;4.50;;
5343;SDS011;2694;48.954;8.928;2023-06-26T11:12:36;9.90;;;4.85;;
5343;SDS011;2694;48.954;8.928;2023-06-26T11:15:06;10.75;;;5.30;;
5343;SDS011;2694;48.954;8.928;2023-06-26T11:17:34;8.52;;;4.70;;
5343;SDS011;2694;48.954;8.928;2023-06-26T11:20:03;9.60;;;4.85;;
5343;SDS011;2694;48.954;8.928;2023-06-26T11:22:33;8.70;;;4.85;;
5343;SDS011;2694;48.954;8.928;2023-06-26T11:25:02;10.38;;;4.75;;
5343;SDS011;2694;48.954;8.928;2023-06-26T11:27:31;12.77;;;5.05;;
5343;SDS011;2694;48.954;8.928;2023-06-26T11:29:58;11.50;;;4.65;;
5343;SDS011;2694;48.954;8.928;2023-06-26T11:32:26;8.47;;;5.20;;
5343;SDS011;2694;48.954;8.928;2023-06-26T11:34:54;12.70;;;5.27;;
5343;SDS011;2694;48.954;8.928;2023-06-26T11:37:22;8.10;;;4.90;;
5343;SDS011;2694;48.954;8.928;2023-06-26T11:39:49;8.27;;;5.15;;
5343;SDS011;2694;48.954;8.928;2023-06-26T11:42:17;10.38;;;4.85;;
5343;SDS011;2694;48.954;8.928;2023-06-26T11:44:44;7.40;;;5.03;;
5343;SDS011;2694;48.954;8.928;2023-06-26T11:47:12;7.57;;;5.10;;
5343;SDS011;2694;48.954;8.928;2023-06-26T11:49:41;6.85;;;4.50;;
5343;SDS011;2694;48.954;8.928;2023-06-26T11:52:09;10.65;;;5.22;;
5343;SDS011;2694;48.954;8.928;2023-06-26T11:54:37;6.47;;;4.63;;
5343;SDS011;2694;48.954;8.928;2023-06-26T11:57:05;6.50;;;4.70;;
5343;SDS011;2694;48.954;8.928;2023-06-26T11:59:33;11.70;;;4.60;;
5343;SDS011;2694;48.954;8.928;2023-06-26T12:02:04;7.95;;;4.30;;
5343;SDS011;2694;48.954;8.928;2023-06-26T12:04:32;7.55;;;4.55;;
5343;SDS011;2694;48.954;8.928;2023-06-26T12:07:00;8.05;;;4.80;;
5343;SDS011;2694;48.954;8.928;2023-06-26T12:09:29;10.25;;;5.25;;
5343;SDS011;2694;48.954;8.928;2023-06-26T12:12:00;7.95;;;4.53;;
5343;SDS011;2694;48.954;8.928;2023-06-26T12:14:27;7.90;;;4.40;;
5343;SDS011;2694;48.954;8.928;2023-06-26T12:16:55;8.90;;;5.30;;
5343;SDS011;2694;48.954;8.928;2023-06-26T12:19:25;7.00;;;4.70;;
5343;SDS011;2694;48.954;8.928;2023-06-26T12:21:52;8.33;;;4.73;;
5343;SDS011;2694;48.954;8.928;2023-06-26T12:24:22;8.13;;;4.30;;
5343;SDS011;2694;48.954;8.928;2023-06-26T12:26:51;8.68;;;4.63;;
5343;SDS011;2694;48.954;8.928;2023-06-26T12:29:28;7.67;;;4.73;;
5343;SDS011;2694;48.954;8.928;2023-06-26T12:31:58;9.77;;;4.55;;
5343;SDS011;2694;48.954;8.928;2023-06-26T12:34:26;10.60;;;4.45;;
5343;SDS011;2694;48.954;8.928;2023-06-26T12:36:59;14.93;;;5.07;;
5343;SDS011;2694;48.954;8.928;2023-06-26T12:39:26;7.30;;;4.73;;
5343;SDS011;2694;48.954;8.928;2023-06-26T12:41:54;10.52;;;4.10;;
5343;SDS011;2694;48.954;8.928;2023-06-26T12:44:27;7.33;;;4.30;;
5343;SDS011;2694;48.954;8.928;2023-06-26T12:46:55;7.07;;;3.70;;
5343;SDS011;2694;48.954;8.928;2023-06-26T12:49:30;7.72;;;4.15;;
5343;SDS011;2694;48.954;8.928;2023-06-26T12:51:58;6.20;;;4.00;;
5343;SDS011;2694;48.954;8.928;2023-06-26T12:54:26;7.18;;;3.78;;
5343;SDS011;2694;48.954;8.928;2023-06-26T12:56:53;9.45;;;3.95;;
5343;SDS011;2694;48.954;8.928;2023-06-26T12:59:20;6.57;;;3.83;;
5343;SDS011;2694;48.954;8.928;2023-06-26T13:01:48;6.43;;;4.00;;
5343;SDS011;2694;48.954;8.928;2023-06-26T13:04:15;6.40;;;3.63;;
5343;SDS011;2694;48.954;8.928;2023-06-26T13:06:42;6.63;;;3.78;;
5343;SDS011;2694;48.954;8.928;2023-06-26T13:09:10;7.35;;;3.72;;
5343;SDS011;2694;48.954;8.928;2023-06-26T13:11:37;6.38;;;3.53;;
5343;SDS011;2694;48.954;8.928;2023-06-26T13:14:04;5.75;;;3.70;;
5343;SDS011;2694;48.954;8.928;2023-06-26T13:16:31;5.63;;;3.08;;
5343;SDS011;2694;48.954;8.928;2023-06-26T13:18:59;9.53;;;3.40;;
5343;SDS011;2694;48.954;8.928;2023-06-26T13:21:27;4.88;;;3.28;;
5343;SDS011;2694;48.954;8.928;2023-06-26T13:23:55;7.82;;;3.13;;
5343;SDS011;2694;48.954;8.928;2023-06-26T13:26:22;5.00;;;3.03;;
5343;SDS011;2694;48.954;8.928;2023-06-26T13:28:50;4.50;;;2.23;;
5343;SDS011;2694;48.954;8.928;2023-06-26T13:31:17;4.40;;;2.30;;
5343;SDS011;2694;48.954;8.928;2023-06-26T13:33:46;6.32;;;2.90;;
5343;SDS011;2694;48.954;8.928;2023-06-26T13:36:15;6.07;;;3.00;;
5343;SDS011;2694;48.954;8.928;2023-06-26T13:38:42;6.60;;;3.30;;
5343;SDS011;2694;48.954;8.928;2023-06-26T13:41:09;8.25;;;3.33;;
5343;SDS011;2694;48.954;8.928;2023-06-26T13:43:36;8.48;;;3.92;;
5343;SDS011;2694;48.954;8.928;2023-06-26T13:46:03;5.78;;;3.67;;
5343;SDS011;2694;48.954;8.928;2023-06-26T13:48:30;6.30;;;3.38;;
5343;SDS011;2694;48.954;8.928;2023-06-26T13:50:58;6.30;;;3.40;;
5343;SDS011;2694;48.954;8.928;2023-06-26T13:53:26;7.18;;;3.10;;
5343;SDS011;2694;48.954;8.928;2023-06-26T13:55:53;6.50;;;2.70;;
5343;SDS011;2694;48.954;8.928;2023-06-26T13:58:20;11.43;;;2.80;;
5343;SDS011;2694;48.954;8.928;2023-06-26T14:00:47;4.82;;;2.47;;
5343;SDS011;2694;48.954;8.928;2023-06-26T14:03:15;5.77;;;2.80;;
5343;SDS011;2694;48.954;8.928;2023-06-26T14:05:42;5.32;;;2.97;;
5343;SDS011;2694;48.954;8.928;2023-06-26T14:08:09;4.57;;;3.10;;
5343;SDS011;2694;48.954;8.928;2023-06-26T14:10:38;5.50;;;2.70;;
5343;SDS011;2694;48.954;8.928;2023-06-26T14:13:05;6.78;;;3.30;;
5343;SDS011;2694;48.954;8.928;2023-06-26T14:15:34;4.75;;;2.60;;
5343;SDS011;2694;48.954;8.928;2023-06-26T14:18:01;4.97;;;2.83;;
5343;SDS011;2694;48.954;8.928;2023-06-26T14:20:29;7.93;;;2.90;;
5343;SDS011;2694;48.954;8.928;2023-06-26T14:22:57;8.18;;;2.40;;
5343;SDS011;2694;48.954;8.928;2023-06-26T14:25:24;4.80;;;2.53;;
5343;SDS011;2694;48.954;8.928;2023-06-26T14:27:54;6.10;;;2.40;;
5343;SDS011;2694;48.954;8.928;2023-06-26T14:30:22;6.50;;;3.03;;
5343;SDS011;2694;48.954;8.928;2023-06-26T14:32:49;7.10;;;2.90;;
5343;SDS011;2694;48.954;8.928;2023-06-26T14:35:16;8.82;;;3.20;;
5343;SDS011;2694;48.954;8.928;2023-06-26T14:37:43;8.20;;;3.20;;
5343;SDS011;2694;48.954;8.928;2023-06-26T14:40:10;6.30;;;3.22;;
5343;SDS011;2694;48.954;8.928;2023-06-26T14:42:38;5.85;;;3.80;;
5343;SDS011;2694;48.954;8.928;2023-06-26T14:45:07;6.18;;;3.53;;
5343;SDS011;2694;48.954;8.928;2023-06-26T14:47:34;5.82;;;3.50;;
5343;SDS011;2694;48.954;8.928;2023-06-26T14:50:01;7.45;;;3.78;;
5343;SDS011;2694;48.954;8.928;2023-06-26T14:52:28;7.72;;;4.40;;
5343;SDS011;2694;48.954;8.928;2023-06-26T14:54:55;8.10;;;3.95;;
5343;SDS011;2694;48.954;8.928;2023-06-26T14:57:22;7.73;;;3.90;;
5343;SDS011;2694;48.954;8.928;2023-06-26T14:59:49;13.70;;;5.10;;
5343;SDS011;2694;48.954;8.928;2023-06-26T15:02:17;8.52;;;4.45;;
5343;SDS011;2694;48.954;8.928;2023-06-26T15:04:44;7.38;;;4.60;;
5343;SDS011;2694;48.954;8.928;2023-06-26T15:07:12;9.77;;;4.70;;
5343;SDS011;2694;48.954;8.928;2023-06-26T15:09:39;12.73;;;4.82;;
5343;SDS011;2694;48.954;8.928;2023-06-26T15:12:06;10.57;;;4.70;;
5343;SDS011;2694;48.954;8.928;2023-06-26T15:14:33;7.18;;;4.10;;